Time;durP1;ratioP1;P1;durP2;ratioP2;P2;SDS_P1;SDS_P2;PMS_P1;PMS_P2;Temp;Humidity;BMP_temperature;BMP_pressure;BME280_temperature;BME280_humidity;BME280_pressure;Samples;Min_cycle;Max_cycle;Signal;HPM_P1;HPM_P2
2021/01/17 00:00:39;;;;;;;34.30;24.60;;;;;;;;;;5107251;28;20027;-63
2021/01/17 00:03:05;;;;;;;37.08;24.85;;;;;;;;;;5108640;28;20040;-63
2021/01/17 00:05:31;;;;;;;31.30;23.90;;;;;;;;;;5107930;28;20042;-63
2021/01/17 00:08:05;;;;;;;33.25;25.23;;;;;;;;;;5107351;28;20039;-62
2021/01/17 00:10:30;;;;;;;39.17;26.38;;;;;;;;;;5109876;28;20161;-64
2021/01/17 00:12:56;;;;;;;34.83;25.63;;;;;;;;;;5109538;28;20110;-63
2021/01/17 00:15:22;;;;;;;34.40;25.63;;;;;;;;;;5108863;28;20172;-64
2021/01/17 00:17:48;;;;;;;37.42;26.10;;;;;;;;;;5107971;28;20110;-63
2021/01/17 00:20:18;;;;;;;34.90;26.63;;;;;;;;;;5109492;28;20072;-63
2021/01/17 00:22:44;;;;;;;36.97;26.20;;;;;;;;;;5109209;28;20149;-63
2021/01/17 00:25:12;;;;;;;35.83;26.55;;;;;;;;;;5107915;28;20043;-64
2021/01/17 00:27:38;;;;;;;34.13;25.90;;;;;;;;;;5109514;28;20378;-65
2021/01/17 00:30:08;;;;;;;34.28;26.40;;;;;;;;;;5109847;28;20035;-63
2021/01/17 00:32:33;;;;;;;30.73;24.70;;;;;;;;;;5106870;28;20055;-64
2021/01/17 00:34:59;;;;;;;40.50;26.63;;;;;;;;;;5108211;28;20070;-65
2021/01/17 00:37:24;;;;;;;35.92;26.38;;;;;;;;;;5108182;28;20107;-66
2021/01/17 00:39:50;;;;;;;35.15;27.25;;;;;;;;;;5109327;28;20114;-66
2021/01/17 00:42:16;;;;;;;36.63;26.90;;;;;;;;;;5109003;28;20040;-66
2021/01/17 00:44:42;;;;;;;39.88;28.52;;;;;;;;;;5109087;28;20032;-65
2021/01/17 00:47:11;;;;;;;37.33;27.45;;;;;;;;;;5108628;28;20042;-65
2021/01/17 00:49:36;;;;;;;36.95;27.45;;;;;;;;;;5105373;28;20041;-65
2021/01/17 00:52:02;;;;;;;35.83;26.60;;;;;;;;;;5107551;28;20036;-64
2021/01/17 00:54:28;;;;;;;40.35;27.42;;;;;;;;;;5107098;28;20110;-65
2021/01/17 00:56:53;;;;;;;42.22;29.23;;;;;;;;;;5104696;28;20039;-65
2021/01/17 00:59:19;;;;;;;42.28;28.33;;;;;;;;;;5104922;28;20043;-65
2021/01/17 01:01:46;;;;;;;39.20;28.20;;;;;;;;;;5108077;28;20031;-65
2021/01/17 01:04:13;;;;;;;36.17;27.08;;;;;;;;;;5107180;28;20457;-65
2021/01/17 01:06:39;;;;;;;36.10;26.70;;;;;;;;;;5101247;28;20036;-65
2021/01/17 01:09:10;;;;;;;38.15;27.58;;;;;;;;;;5101577;28;20574;-65
2021/01/17 01:11:36;;;;;;;41.40;28.40;;;;;;;;;;5102958;28;20061;-65
2021/01/17 01:14:03;;;;;;;39.92;27.88;;;;;;;;;;5099998;28;20551;-65
2021/01/17 01:16:29;;;;;;;38.00;28.40;;;;;;;;;;5104677;28;20605;-65
2021/01/17 01:18:54;;;;;;;39.50;28.48;;;;;;;;;;5104812;28;20039;-65
2021/01/17 01:21:27;;;;;;;37.65;28.80;;;;;;;;;;5104967;28;20035;-66
2021/01/17 01:23:53;;;;;;;40.38;27.60;;;;;;;;;;5102442;28;20448;-65
2021/01/17 01:26:21;;;;;;;40.15;28.35;;;;;;;;;;5102715;28;20035;-65
2021/01/17 01:28:47;;;;;;;36.85;27.35;;;;;;;;;;5107039;28;20043;-65
2021/01/17 01:31:23;;;;;;;40.60;28.75;;;;;;;;;;5107796;28;20120;-65
2021/01/17 01:33:50;;;;;;;41.00;29.20;;;;;;;;;;5104812;28;20050;-66
2021/01/17 01:36:23;;;;;;;41.58;27.70;;;;;;;;;;5106062;28;20505;-65
2021/01/17 01:38:50;;;;;;;39.50;27.83;;;;;;;;;;5106016;28;20032;-63
2021/01/17 01:41:16;;;;;;;36.28;27.05;;;;;;;;;;5107259;28;20046;-64
2021/01/17 01:43:42;;;;;;;35.15;27.52;;;;;;;;;;5107647;28;20036;-64
2021/01/17 01:46:14;;;;;;;47.88;28.00;;;;;;;;;;5108571;28;20086;-64
2021/01/17 01:48:40;;;;;;;40.05;27.65;;;;;;;;;;5108364;28;20115;-64
2021/01/17 01:51:06;;;;;;;39.10;26.00;;;;;;;;;;5106124;28;20031;-64
2021/01/17 01:53:31;;;;;;;38.25;25.67;;;;;;;;;;5107979;28;20031;-64
2021/01/17 01:55:58;;;;;;;36.42;27.40;;;;;;;;;;5107859;28;20118;-63
2021/01/17 01:58:23;;;;;;;34.35;27.20;;;;;;;;;;5107169;28;20620;-64
2021/01/17 02:00:50;;;;;;;38.75;27.05;;;;;;;;;;5108609;28;20035;-64
2021/01/17 02:03:16;;;;;;;39.35;26.77;;;;;;;;;;5108441;28;20031;-64
2021/01/17 02:05:43;;;;;;;35.75;26.02;;;;;;;;;;5106222;28;20047;-64
2021/01/17 02:08:30;;;;;;;37.13;26.10;;;;;;;;;;5108344;28;20035;-64
2021/01/17 02:11:24;;;;;;;37.08;27.13;;;;;;;;;;5108116;28;20670;-64
2021/01/17 02:14:10;;;;;;;37.20;26.10;;;;;;;;;;5098486;28;20422;-63
2021/01/17 02:16:39;;;;;;;35.65;26.40;;;;;;;;;;5111306;28;20045;-63
2021/01/17 02:19:07;;;;;;;36.33;24.92;;;;;;;;;;5112713;28;20027;-63
2021/01/17 02:21:35;;;;;;;35.38;25.73;;;;;;;;;;5109537;28;20035;-63
2021/01/17 02:24:09;;;;;;;37.22;26.60;;;;;;;;;;5112619;28;20040;-63
2021/01/17 02:26:34;;;;;;;39.67;27.80;;;;;;;;;;5110065;28;20043;-63
2021/01/17 02:29:01;;;;;;;36.88;26.27;;;;;;;;;;5111285;28;20032;-63
2021/01/17 02:31:26;;;;;;;36.60;26.25;;;;;;;;;;5112475;28;20039;-63
2021/01/17 02:33:53;;;;;;;33.80;25.70;;;;;;;;;;5112263;28;20354;-63
2021/01/17 02:36:34;;;;;;;42.90;27.02;;;;;;;;;;5110289;28;20032;-63
2021/01/17 02:39:08;;;;;;;38.30;26.60;;;;;;;;;;5114251;27;20122;-63
2021/01/17 02:41:59;;;;;;;38.60;27.30;;;;;;;;;;5111007;28;20039;-63
2021/01/17 02:44:34;;;;;;;36.80;26.63;;;;;;;;;;5111230;28;20031;-63
2021/01/17 02:47:01;;;;;;;39.70;26.95;;;;;;;;;;5111015;28;20049;-63
2021/01/17 02:49:26;;;;;;;35.40;25.85;;;;;;;;;;5111768;28;20042;-63
2021/01/17 02:51:52;;;;;;;40.33;26.77;;;;;;;;;;5112106;28;20031;-63
2021/01/17 02:54:28;;;;;;;39.20;27.63;;;;;;;;;;5111372;28;20027;-63
2021/01/17 02:57:02;;;;;;;36.00;27.23;;;;;;;;;;5110016;28;20043;-63
2021/01/17 02:59:32;;;;;;;38.13;26.45;;;;;;;;;;5111607;28;20028;-63
2021/01/17 03:01:59;;;;;;;38.57;27.17;;;;;;;;;;5111277;28;20031;-63
2021/01/17 03:04:42;;;;;;;39.95;27.20;;;;;;;;;;5111299;28;20036;-63
2021/01/17 03:07:11;;;;;;;35.47;26.13;;;;;;;;;;5111015;28;20035;-63
2021/01/17 03:09:37;;;;;;;34.95;26.55;;;;;;;;;;5110903;28;20035;-63
2021/01/17 03:12:04;;;;;;;37.45;25.88;;;;;;;;;;5110857;28;20115;-63
2021/01/17 03:14:36;;;;;;;35.13;27.13;;;;;;;;;;5111279;28;20031;-63
2021/01/17 03:17:06;;;;;;;38.85;26.08;;;;;;;;;;5111391;28;20028;-63
2021/01/17 03:19:32;;;;;;;39.10;27.48;;;;;;;;;;5109861;28;20047;-63
2021/01/17 03:21:57;;;;;;;34.45;26.08;;;;;;;;;;5110573;28;20039;-63
2021/01/17 03:24:23;;;;;;;36.30;26.83;;;;;;;;;;5110458;28;20480;-63
2021/01/17 03:26:49;;;;;;;37.70;27.08;;;;;;;;;;5111110;28;20074;-63
2021/01/17 03:29:14;;;;;;;38.03;25.25;;;;;;;;;;5109937;28;20135;-63
2021/01/17 03:31:39;;;;;;;36.47;27.10;;;;;;;;;;5111313;28;20028;-63
2021/01/17 03:34:05;;;;;;;42.08;27.17;;;;;;;;;;5110659;28;20055;-63
2021/01/17 03:36:30;;;;;;;38.25;27.58;;;;;;;;;;5111004;28;20032;-63
2021/01/17 03:38:55;;;;;;;35.78;27.40;;;;;;;;;;5109652;28;20032;-63
2021/01/17 03:41:24;;;;;;;38.72;27.25;;;;;;;;;;5110313;28;20582;-63
2021/01/17 03:43:49;;;;;;;41.40;28.52;;;;;;;;;;5105735;28;20477;-63
2021/01/17 03:46:14;;;;;;;37.20;27.08;;;;;;;;;;5108600;28;20042;-63
2021/01/17 03:48:40;;;;;;;33.35;26.13;;;;;;;;;;5110936;28;20045;-63
2021/01/17 03:51:05;;;;;;;32.80;26.40;;;;;;;;;;5110780;28;20031;-63
2021/01/17 03:53:30;;;;;;;47.63;27.65;;;;;;;;;;5108819;28;20031;-63
2021/01/17 03:55:56;;;;;;;38.95;28.70;;;;;;;;;;5109742;28;20040;-63
2021/01/17 03:58:21;;;;;;;40.03;29.00;;;;;;;;;;5110553;28;20031;-63
2021/01/17 04:00:46;;;;;;;44.10;29.92;;;;;;;;;;5110749;28;20035;-63
2021/01/17 04:03:13;;;;;;;43.30;28.33;;;;;;;;;;5109741;28;20043;-63
2021/01/17 04:05:38;;;;;;;38.10;27.48;;;;;;;;;;5110042;28;20496;-63
2021/01/17 04:08:04;;;;;;;40.58;27.95;;;;;;;;;;5110575;28;20161;-63
2021/01/17 04:10:30;;;;;;;40.13;29.67;;;;;;;;;;5110310;28;20103;-63
2021/01/17 04:12:55;;;;;;;38.35;29.10;;;;;;;;;;5108545;28;20035;-63
2021/01/17 04:15:20;;;;;;;38.35;27.90;;;;;;;;;;5108960;28;20027;-64
2021/01/17 04:17:48;;;;;;;38.83;28.27;;;;;;;;;;5110359;28;20020;-63
2021/01/17 04:20:15;;;;;;;46.50;30.98;;;;;;;;;;5108241;28;20031;-63
2021/01/17 04:22:40;;;;;;;40.28;30.05;;;;;;;;;;5109265;28;20032;-64
2021/01/17 04:25:06;;;;;;;41.22;30.38;;;;;;;;;;5110296;28;20046;-63
2021/01/17 04:27:32;;;;;;;43.25;32.80;;;;;;;;;;5108070;28;20028;-63
2021/01/17 04:29:57;;;;;;;36.45;28.05;;;;;;;;;;5108703;28;20038;-63
2021/01/17 04:32:24;;;;;;;36.92;27.10;;;;;;;;;;5109481;28;20035;-64
2021/01/17 04:34:51;;;;;;;43.17;28.55;;;;;;;;;;5109705;28;20366;-64
2021/01/17 04:37:20;;;;;;;37.55;28.35;;;;;;;;;;5109422;28;20042;-63
2021/01/17 04:39:46;;;;;;;43.33;28.45;;;;;;;;;;5108890;28;20036;-63
2021/01/17 04:42:17;;;;;;;41.65;27.38;;;;;;;;;;5109751;28;20034;-63
2021/01/17 04:44:52;;;;;;;39.23;28.50;;;;;;;;;;5091862;28;20042;-63
2021/01/17 04:47:19;;;;;;;44.25;29.23;;;;;;;;;;5109249;28;20031;-63
2021/01/17 04:49:52;;;;;;;38.38;28.52;;;;;;;;;;5109128;28;20088;-63
2021/01/17 04:52:21;;;;;;;38.25;29.70;;;;;;;;;;5109935;28;20035;-63
2021/01/17 04:54:47;;;;;;;44.33;28.85;;;;;;;;;;5109564;28;20392;-63
2021/01/17 04:57:30;;;;;;;37.15;28.70;;;;;;;;;;5109208;28;20073;-63
2021/01/17 05:00:05;;;;;;;38.22;28.85;;;;;;;;;;5107857;28;20377;-63
2021/01/17 05:02:33;;;;;;;40.83;28.98;;;;;;;;;;5109551;28;20055;-63
2021/01/17 05:05:24;;;;;;;37.80;27.45;;;;;;;;;;5109140;28;20128;-63
2021/01/17 05:08:29;;;;;;;40.33;28.50;;;;;;;;;;5107023;28;20028;-63
2021/01/17 05:11:03;;;;;;;36.75;25.63;;;;;;;;;;5108854;28;20059;-64
2021/01/17 05:13:47;;;;;;;41.75;27.90;;;;;;;;;;5108081;28;20036;-63
2021/01/17 05:16:14;;;;;;;44.30;28.48;;;;;;;;;;5107969;28;20035;-63
2021/01/17 05:18:46;;;;;;;37.45;26.60;;;;;;;;;;5108935;28;20173;-63
2021/01/17 05:21:18;;;;;;;36.38;27.80;;;;;;;;;;5109627;28;20088;-63
2021/01/17 05:23:46;;;;;;;39.08;28.67;;;;;;;;;;5108559;28;20046;-63
2021/01/17 05:26:12;;;;;;;42.75;29.45;;;;;;;;;;5108916;28;20123;-63
2021/01/17 05:28:38;;;;;;;41.97;28.02;;;;;;;;;;5109450;28;20407;-64
2021/01/17 05:31:03;;;;;;;38.63;28.63;;;;;;;;;;5108927;28;20028;-64
2021/01/17 05:33:32;;;;;;;38.70;28.90;;;;;;;;;;5108692;28;20041;-65
2021/01/17 05:35:59;;;;;;;37.50;28.23;;;;;;;;;;5108518;28;20373;-64
2021/01/17 05:38:25;;;;;;;38.72;27.73;;;;;;;;;;5107920;28;20043;-64
2021/01/17 05:40:51;;;;;;;40.00;28.63;;;;;;;;;;5107324;28;20472;-64
2021/01/17 05:43:17;;;;;;;38.33;27.90;;;;;;;;;;5106949;28;20036;-64
2021/01/17 05:45:43;;;;;;;38.47;28.95;;;;;;;;;;5107651;28;20043;-65
2021/01/17 05:48:11;;;;;;;41.65;29.83;;;;;;;;;;5111621;28;20046;-64
2021/01/17 05:50:41;;;;;;;45.08;30.95;;;;;;;;;;5112401;28;20038;-64
2021/01/17 05:53:06;;;;;;;42.05;31.23;;;;;;;;;;5112465;28;20031;-64
2021/01/17 05:55:37;;;;;;;39.75;28.77;;;;;;;;;;5111537;28;20038;-64
2021/01/17 05:58:32;;;;;;;48.08;33.78;;;;;;;;;;5112474;28;20114;-65
2021/01/17 06:00:59;;;;;;;42.85;30.77;;;;;;;;;;5111376;28;20130;-64
2021/01/17 06:03:34;;;;;;;43.13;30.58;;;;;;;;;;5113131;28;20119;-64
2021/01/17 06:06:05;;;;;;;37.90;29.50;;;;;;;;;;5112884;28;20028;-64
2021/01/17 06:08:31;;;;;;;36.73;28.37;;;;;;;;;;5111450;28;20096;-64
2021/01/17 06:11:07;;;;;;;36.92;29.02;;;;;;;;;;5112172;28;20468;-64
2021/01/17 06:13:36;;;;;;;37.72;28.88;;;;;;;;;;5111531;28;20051;-64
2021/01/17 06:16:01;;;;;;;40.25;28.27;;;;;;;;;;5112655;28;20050;-64
2021/01/17 06:18:29;;;;;;;38.35;28.80;;;;;;;;;;5110833;28;20785;-64
2021/01/17 06:20:57;;;;;;;41.17;28.45;;;;;;;;;;5111979;28;20447;-64
2021/01/17 06:23:23;;;;;;;37.95;27.60;;;;;;;;;;5112626;28;20036;-64
2021/01/17 06:26:06;;;;;;;36.40;28.55;;;;;;;;;;5111393;28;20031;-64
2021/01/17 06:28:41;;;;;;;39.00;29.35;;;;;;;;;;5112358;28;20031;-64
2021/01/17 06:31:08;;;;;;;41.90;28.38;;;;;;;;;;5112243;28;20046;-64
2021/01/17 06:33:35;;;;;;;40.38;28.08;;;;;;;;;;5110255;28;20556;-64
2021/01/17 06:36:11;;;;;;;39.53;28.25;;;;;;;;;;5112270;28;20035;-64
2021/01/17 06:38:36;;;;;;;37.08;27.60;;;;;;;;;;5111105;28;20543;-64
2021/01/17 06:41:02;;;;;;;36.30;28.10;;;;;;;;;;5111594;28;20055;-64
2021/01/17 06:43:30;;;;;;;35.83;26.90;;;;;;;;;;5112703;28;20062;-64
2021/01/17 06:45:57;;;;;;;41.10;29.13;;;;;;;;;;5111893;28;20042;-64
2021/01/17 06:48:24;;;;;;;35.55;26.60;;;;;;;;;;5111928;28;20507;-64
2021/01/17 06:50:49;;;;;;;35.28;26.02;;;;;;;;;;5110226;28;20035;-64
2021/01/17 06:53:23;;;;;;;37.40;28.13;;;;;;;;;;5111148;28;20035;-63
2021/01/17 06:55:49;;;;;;;33.85;26.73;;;;;;;;;;5110740;28;20042;-64
2021/01/17 06:58:16;;;;;;;36.35;26.75;;;;;;;;;;5110895;28;20509;-65
2021/01/17 07:00:48;;;;;;;36.90;26.80;;;;;;;;;;5109955;28;20035;-64
2021/01/17 07:03:16;;;;;;;36.78;26.52;;;;;;;;;;5110499;28;20026;-64
2021/01/17 07:06:04;;;;;;;38.97;27.25;;;;;;;;;;5110718;28;20871;-64
2021/01/17 07:08:43;;;;;;;33.00;27.10;;;;;;;;;;5110659;28;20024;-64
2021/01/17 07:11:32;;;;;;;34.85;25.83;;;;;;;;;;5110278;28;20042;-64
2021/01/17 07:14:04;;;;;;;39.30;27.13;;;;;;;;;;5108009;28;20063;-64
2021/01/17 07:16:31;;;;;;;36.63;26.58;;;;;;;;;;5110449;28;20110;-64
2021/01/17 07:19:03;;;;;;;35.70;25.10;;;;;;;;;;5110461;28;20051;-64
2021/01/17 07:21:33;;;;;;;;;;;;;;;;;;5112083;27;20100;-64
2021/01/17 07:24:03;;;;;;;35.17;25.40;;;;;;;;;;5111466;28;19922;-64
2021/01/17 07:27:01;;;;;;;31.63;24.05;;;;;;;;;;5109855;28;20031;-65
2021/01/17 07:29:27;;;;;;;36.95;26.23;;;;;;;;;;5109301;28;20031;-64
2021/01/17 07:31:54;;;;;;;33.97;25.60;;;;;;;;;;5111417;28;20063;-64
2021/01/17 07:34:20;;;;;;;42.72;26.85;;;;;;;;;;5108241;28;20031;-65
2021/01/17 07:36:48;;;;;;;36.90;27.50;;;;;;;;;;5109818;28;20091;-65
2021/01/17 07:39:24;;;;;;;35.92;25.88;;;;;;;;;;5110497;28;20035;-63
2021/01/17 07:41:50;;;;;;;37.05;25.98;;;;;;;;;;5110685;28;20035;-63
2021/01/17 07:44:18;;;;;;;35.47;26.50;;;;;;;;;;5110301;28;20415;-63
2021/01/17 07:46:44;;;;;;;34.45;26.73;;;;;;;;;;5109849;28;20031;-63
2021/01/17 07:49:11;;;;;;;37.78;26.20;;;;;;;;;;5111054;28;20023;-63
2021/01/17 07:51:37;;;;;;;34.13;26.20;;;;;;;;;;5107740;28;20417;-62
2021/01/17 07:54:29;;;;;;;33.22;26.40;;;;;;;;;;5110153;28;20039;-63
2021/01/17 07:56:57;;;;;;;33.20;25.45;;;;;;;;;;5110435;28;20027;-63
2021/01/17 07:59:25;;;;;;;39.97;26.85;;;;;;;;;;5108836;28;20053;-61
2021/01/17 08:01:52;;;;;;;35.45;27.38;;;;;;;;;;5109116;28;20083;-62
2021/01/17 08:04:17;;;;;;;47.08;33.58;;;;;;;;;;5109985;28;20038;-62
2021/01/17 08:06:45;;;;;;;41.22;30.70;;;;;;;;;;5110144;28;20043;-62
2021/01/17 08:09:15;;;;;;;42.33;30.30;;;;;;;;;;5106070;28;20036;-62
2021/01/17 08:11:42;;;;;;;33.03;25.17;;;;;;;;;;5109611;28;20032;-62
2021/01/17 08:14:27;;;;;;;34.75;26.58;;;;;;;;;;5109223;28;20730;-62
2021/01/17 08:17:18;;;;;;;32.45;24.90;;;;;;;;;;5109199;28;20046;-62
2021/01/17 08:19:53;;;;;;;38.53;26.30;;;;;;;;;;5107709;28;20035;-62
2021/01/17 08:22:21;;;;;;;32.85;26.10;;;;;;;;;;5109207;28;20145;-62
2021/01/17 08:24:48;;;;;;;35.50;25.23;;;;;;;;;;5108356;28;20023;-62
2021/01/17 08:27:32;;;;;;;33.97;26.27;;;;;;;;;;5108921;28;20047;-62
2021/01/17 08:30:00;;;;;;;39.15;25.63;;;;;;;;;;5109207;28;20035;-63
2021/01/17 08:32:34;;;;;;;37.30;27.60;;;;;;;;;;5109651;28;20096;-62
2021/01/17 08:35:23;;;;;;;34.50;26.27;;;;;;;;;;5108213;28;20097;-62
2021/01/17 08:37:55;;;;;;;36.83;27.60;;;;;;;;;;5107299;28;20031;-62
2021/01/17 08:40:29;;;;;;;36.75;26.80;;;;;;;;;;5108821;28;20024;-62
2021/01/17 08:42:54;;;;;;;35.50;25.52;;;;;;;;;;5107551;28;20023;-62
2021/01/17 08:45:22;;;;;;;36.47;26.67;;;;;;;;;;5110131;28;20609;-62
2021/01/17 08:47:55;;;;;;;39.20;27.33;;;;;;;;;;5109296;28;20027;-63
2021/01/17 08:50:30;;;;;;;34.55;26.55;;;;;;;;;;5104061;28;20114;-62
2021/01/17 08:53:09;;;;;;;42.13;28.42;;;;;;;;;;5105883;28;20043;-62
2021/01/17 08:55:54;;;;;;;35.50;26.33;;;;;;;;;;5106017;28;20035;-62
2021/01/17 08:58:26;;;;;;;36.40;26.00;;;;;;;;;;5104825;28;20047;-63
2021/01/17 09:00:51;;;;;;;;;;;;;;;;;;5107711;28;20027;-63
2021/01/17 09:03:26;;;;;;;38.42;26.98;;;;;;;;;;5107590;28;19907;-62
2021/01/17 09:05:52;;;;;;;38.80;26.88;;;;;;;;;;5108326;28;20038;-62
2021/01/17 09:08:18;;;;;;;39.42;26.10;;;;;;;;;;5108265;28;20364;-62
2021/01/17 09:10:44;;;;;;;38.60;26.55;;;;;;;;;;5109328;28;20028;-62
2021/01/17 09:13:20;;;;;;;40.13;27.27;;;;;;;;;;5109047;28;20046;-63
2021/01/17 09:15:59;;;;;;;36.38;27.05;;;;;;;;;;5107213;28;20516;-63
2021/01/17 09:18:30;;;;;;;34.08;26.73;;;;;;;;;;5108202;28;20039;-62
2021/01/17 09:20:56;;;;;;;39.50;27.55;;;;;;;;;;5106534;28;20031;-62
2021/01/17 09:23:23;;;;;;;39.08;24.95;;;;;;;;;;5108244;28;20063;-62
2021/01/17 09:25:57;;;;;;;34.42;25.63;;;;;;;;;;5109007;28;20031;-63
2021/01/17 09:28:22;;;;;;;38.45;27.65;;;;;;;;;;5106824;28;20039;-63
2021/01/17 09:30:49;;;;;;;33.05;26.15;;;;;;;;;;5108528;28;20127;-62
2021/01/17 09:33:15;;;;;;;37.55;27.35;;;;;;;;;;5108789;28;20036;-62
2021/01/17 09:35:44;;;;;;;42.88;29.00;;;;;;;;;;5108564;28;20055;-62
2021/01/17 09:38:15;;;;;;;36.03;26.10;;;;;;;;;;5107645;28;20525;-62
2021/01/17 09:40:41;;;;;;;34.17;27.13;;;;;;;;;;5109081;28;20032;-62
2021/01/17 09:43:07;;;;;;;36.67;26.88;;;;;;;;;;5109120;28;20032;-62
2021/01/17 09:45:33;;;;;;;37.97;28.52;;;;;;;;;;5105425;28;20023;-62
2021/01/17 09:47:58;;;;;;;35.10;26.95;;;;;;;;;;5108669;28;20114;-62
2021/01/17 09:50:24;;;;;;;39.80;27.98;;;;;;;;;;5109661;28;20119;-61
2021/01/17 09:52:49;;;;;;;38.38;27.48;;;;;;;;;;5109433;28;20038;-61
2021/01/17 09:55:15;;;;;;;41.72;28.20;;;;;;;;;;5108807;28;20514;-62
2021/01/17 09:57:41;;;;;;;34.90;26.75;;;;;;;;;;5108645;28;20111;-62
2021/01/17 10:00:12;;;;;;;39.65;28.60;;;;;;;;;;5109079;28;20448;-62
2021/01/17 10:02:37;;;;;;;44.05;30.13;;;;;;;;;;5108289;28;20071;-62
2021/01/17 10:05:03;;;;;;;39.78;28.50;;;;;;;;;;5108202;28;20090;-62
2021/01/17 10:07:28;;;;;;;38.05;28.75;;;;;;;;;;5109030;28;20044;-61
2021/01/17 10:09:54;;;;;;;43.53;31.08;;;;;;;;;;5108718;28;20107;-62
2021/01/17 10:12:26;;;;;;;39.00;29.20;;;;;;;;;;5107213;28;20122;-62
2021/01/17 10:14:52;;;;;;;38.30;28.52;;;;;;;;;;5108809;28;20096;-61
2021/01/17 10:17:18;;;;;;;39.45;28.23;;;;;;;;;;5108841;28;20031;-61
2021/01/17 10:19:46;;;;;;;38.63;29.30;;;;;;;;;;5096493;28;20035;-61
2021/01/17 10:22:14;;;;;;;43.60;30.42;;;;;;;;;;5107735;28;20036;-61
2021/01/17 10:24:40;;;;;;;43.10;30.25;;;;;;;;;;5106898;28;20416;-61
2021/01/17 10:27:07;;;;;;;36.55;28.50;;;;;;;;;;5108971;28;20115;-61
2021/01/17 10:29:41;;;;;;;38.33;28.02;;;;;;;;;;5106400;28;20032;-61
2021/01/17 10:32:11;;;;;;;40.95;29.80;;;;;;;;;;5109002;28;20114;-61
2021/01/17 10:34:42;;;;;;;37.73;28.10;;;;;;;;;;5109471;28;20114;-61
2021/01/17 10:37:12;;;;;;;39.23;28.13;;;;;;;;;;5111653;28;20268;-61
2021/01/17 10:39:41;;;;;;;41.53;30.58;;;;;;;;;;5111327;28;20302;-61
2021/01/17 10:42:28;;;;;;;41.47;28.45;;;;;;;;;;5112266;28;20038;-61
2021/01/17 10:45:13;;;;;;;39.80;28.13;;;;;;;;;;5111013;28;20031;-61
2021/01/17 10:47:58;;;;;;;42.03;27.13;;;;;;;;;;5109749;28;20899;-61
2021/01/17 10:50:25;;;;;;;41.22;29.13;;;;;;;;;;5111269;28;20172;-63
2021/01/17 10:52:58;;;;;;;43.05;29.52;;;;;;;;;;5112200;28;20023;-62
2021/01/17 10:55:33;;;;;;;42.50;29.92;;;;;;;;;;5110787;28;20039;-61
2021/01/17 10:58:00;;;;;;;35.80;27.75;;;;;;;;;;5111334;28;20040;-61
2021/01/17 11:00:25;;;;;;;40.75;29.33;;;;;;;;;;5111465;28;20084;-61
2021/01/17 11:03:10;;;;;;;43.20;29.83;;;;;;;;;;5112316;28;20035;-61
2021/01/17 11:05:35;;;;;;;43.78;30.48;;;;;;;;;;5109587;28;20141;-61
2021/01/17 11:08:01;;;;;;;38.92;29.77;;;;;;;;;;5112114;28;20043;-61
2021/01/17 11:10:27;;;;;;;41.90;28.45;;;;;;;;;;5110572;28;20942;-61
2021/01/17 11:12:52;;;;;;;40.55;29.73;;;;;;;;;;5107183;27;20035;-61
2021/01/17 11:15:19;;;;;;;42.33;31.42;;;;;;;;;;5108134;27;20357;-61
2021/01/17 11:17:56;;;;;;;39.20;29.52;;;;;;;;;;5108894;28;20035;-61
2021/01/17 11:20:30;;;;;;;40.10;30.25;;;;;;;;;;5109931;28;20065;-60
2021/01/17 11:23:04;;;;;;;40.42;28.40;;;;;;;;;;5109502;28;20455;-61
2021/01/17 11:25:30;;;;;;;38.17;29.25;;;;;;;;;;5111068;28;20043;-61
2021/01/17 11:27:57;;;;;;;35.97;27.20;;;;;;;;;;5111261;28;20031;-60
2021/01/17 11:30:27;;;;;;;47.90;29.52;;;;;;;;;;5109353;28;20495;-60
2021/01/17 11:33:05;;;;;;;42.10;30.30;;;;;;;;;;5110198;28;20084;-60
2021/01/17 11:35:30;;;;;;;42.67;29.00;;;;;;;;;;5110484;28;20036;-60
2021/01/17 11:37:57;;;;;;;42.10;29.73;;;;;;;;;;5111066;28;20551;-61
2021/01/17 11:40:23;;;;;;;36.70;27.80;;;;;;;;;;5109228;28;20031;-60
2021/01/17 11:42:48;;;;;;;38.15;29.13;;;;;;;;;;5110638;28;20062;-60
2021/01/17 11:45:21;;;;;;;39.67;28.38;;;;;;;;;;5101013;28;20107;-61
2021/01/17 11:47:57;;;;;;;35.20;27.25;;;;;;;;;;5107525;28;20483;-61
2021/01/17 11:50:22;;;;;;;39.60;29.10;;;;;;;;;;5103780;28;20110;-60
2021/01/17 11:52:58;;;;;;;52.58;39.60;;;;;;;;;;5104027;28;20583;-61
2021/01/17 11:55:24;;;;;;;41.92;29.00;;;;;;;;;;5106415;28;20421;-60
2021/01/17 11:57:50;;;;;;;41.33;31.25;;;;;;;;;;5107164;28;20042;-59
2021/01/17 12:00:16;;;;;;;59.83;44.63;;;;;;;;;;5107078;28;20417;-60
2021/01/17 12:02:42;;;;;;;49.53;36.25;;;;;;;;;;5105697;28;20422;-60
2021/01/17 12:05:08;;;;;;;41.97;31.98;;;;;;;;;;5103811;28;20492;-59
2021/01/17 12:07:34;;;;;;;41.95;31.42;;;;;;;;;;5102198;28;20483;-59
2021/01/17 12:10:09;;;;;;;41.30;30.90;;;;;;;;;;5105459;28;20035;-59
2021/01/17 12:12:38;;;;;;;41.75;32.40;;;;;;;;;;5104594;28;20464;-56
2021/01/17 12:15:07;;;;;;;48.47;31.75;;;;;;;;;;5106932;28;20039;-55
2021/01/17 12:17:32;;;;;;;42.20;29.80;;;;;;;;;;5106336;28;20461;-56
2021/01/17 12:19:58;;;;;;;36.08;29.13;;;;;;;;;;5106432;28;20036;-58
2021/01/17 12:22:23;;;;;;;36.22;29.30;;;;;;;;;;5107742;28;20352;-57
2021/01/17 12:24:49;;;;;;;39.67;27.77;;;;;;;;;;5107383;28;20039;-58
2021/01/17 12:27:14;;;;;;;36.47;28.70;;;;;;;;;;5107824;28;20043;-58
2021/01/17 12:29:39;;;;;;;35.90;28.67;;;;;;;;;;5106883;28;20097;-57
2021/01/17 12:32:05;;;;;;;35.85;27.35;;;;;;;;;;5107152;28;20043;-58
2021/01/17 12:34:30;;;;;;;38.58;27.58;;;;;;;;;;5108304;28;20111;-56
2021/01/17 12:36:56;;;;;;;35.80;27.45;;;;;;;;;;5109015;28;20135;-56
2021/01/17 12:39:21;;;;;;;37.97;27.98;;;;;;;;;;5107481;28;20069;-57
2021/01/17 12:41:51;;;;;;;32.33;26.10;;;;;;;;;;5108821;28;20561;-54
2021/01/17 12:44:17;;;;;;;30.75;25.48;;;;;;;;;;5108499;28;20077;-57
2021/01/17 12:46:44;;;;;;;32.33;25.27;;;;;;;;;;5107012;28;20036;-57
2021/01/17 12:49:10;;;;;;;40.63;25.83;;;;;;;;;;5106818;28;20028;-58
2021/01/17 12:51:35;;;;;;;35.25;25.48;;;;;;;;;;5106673;28;20494;-57
2021/01/17 12:54:01;;;;;;;33.15;24.85;;;;;;;;;;5108104;28;20034;-55
2021/01/17 12:56:26;;;;;;;36.80;26.35;;;;;;;;;;5105250;28;20038;-56
2021/01/17 12:58:52;;;;;;;33.50;25.85;;;;;;;;;;5105145;28;20351;-56
2021/01/17 13:01:17;;;;;;;34.35;27.38;;;;;;;;;;5107447;28;20138;-59
2021/01/17 13:03:43;;;;;;;32.92;27.15;;;;;;;;;;5105304;28;20855;-59
2021/01/17 13:06:10;;;;;;;30.30;24.35;;;;;;;;;;5106342;28;20470;-59
2021/01/17 13:08:36;;;;;;;31.88;24.88;;;;;;;;;;5106704;28;20028;-59
2021/01/17 13:11:04;;;;;;;33.75;26.00;;;;;;;;;;5106292;28;20046;-60
2021/01/17 13:13:29;;;;;;;30.67;24.83;;;;;;;;;;5107064;28;20516;-60
2021/01/17 13:15:56;;;;;;;32.55;24.38;;;;;;;;;;5107440;28;20105;-59
2021/01/17 13:18:22;;;;;;;32.00;23.95;;;;;;;;;;5105651;28;20035;-58
2021/01/17 13:20:49;;;;;;;32.97;23.70;;;;;;;;;;5105173;28;20654;-59
2021/01/17 13:23:14;;;;;;;33.25;24.83;;;;;;;;;;5107912;28;20035;-59
2021/01/17 13:25:41;;;;;;;29.70;24.15;;;;;;;;;;5105775;28;20043;-58
2021/01/17 13:28:07;;;;;;;34.15;23.95;;;;;;;;;;5107307;28;20114;-57
2021/01/17 13:30:34;;;;;;;33.00;26.20;;;;;;;;;;5103945;28;20035;-58
2021/01/17 13:33:01;;;;;;;32.92;25.02;;;;;;;;;;5107812;28;20653;-60
2021/01/17 13:35:27;;;;;;;30.83;24.20;;;;;;;;;;5106847;28;20128;-60
2021/01/17 13:37:53;;;;;;;33.90;23.70;;;;;;;;;;5106938;28;20100;-58
2021/01/17 13:40:19;;;;;;;31.10;24.52;;;;;;;;;;5106185;28;20098;-59
2021/01/17 13:42:44;;;;;;;32.08;24.48;;;;;;;;;;5107320;28;20024;-60
2021/01/17 13:45:11;;;;;;;33.17;23.80;;;;;;;;;;5106967;28;20039;-60
2021/01/17 13:47:39;;;;;;;30.98;24.88;;;;;;;;;;5104177;28;20028;-60
2021/01/17 13:50:06;;;;;;;34.20;25.30;;;;;;;;;;5107445;28;20102;-60
2021/01/17 13:52:31;;;;;;;35.92;26.15;;;;;;;;;;5106430;28;20028;-60
2021/01/17 13:54:57;;;;;;;36.33;24.88;;;;;;;;;;5102756;28;20068;-61
2021/01/17 13:57:24;;;;;;;35.75;26.85;;;;;;;;;;5104371;28;20096;-60
2021/01/17 13:59:50;;;;;;;36.28;25.45;;;;;;;;;;5105828;28;20031;-62
2021/01/17 14:02:15;;;;;;;28.27;23.83;;;;;;;;;;5107618;28;20035;-61
2021/01/17 14:04:42;;;;;;;33.30;27.90;;;;;;;;;;5108300;28;20031;-61
2021/01/17 14:07:12;;;;;;;35.55;26.42;;;;;;;;;;5108596;28;20039;-61
2021/01/17 14:09:37;;;;;;;60.40;46.53;;;;;;;;;;5110017;28;20039;-61
2021/01/17 14:12:21;;;;;;;168.13;128.98;;;;;;;;;;5112807;28;20434;-62
2021/01/17 14:14:46;;;;;;;82.93;64.47;;;;;;;;;;5112748;28;20041;-61
2021/01/17 14:17:11;;;;;;;48.33;39.83;;;;;;;;;;5111938;28;20024;-61
2021/01/17 14:19:37;;;;;;;35.42;27.45;;;;;;;;;;5110186;28;20036;-61
2021/01/17 14:22:03;;;;;;;39.13;26.25;;;;;;;;;;5112875;28;20504;-61
2021/01/17 14:24:28;;;;;;;33.05;25.88;;;;;;;;;;5110851;28;20122;-61
2021/01/17 14:26:53;;;;;;;37.88;27.20;;;;;;;;;;5110790;28;20108;-61
2021/01/17 14:29:19;;;;;;;39.10;29.27;;;;;;;;;;5111698;28;20032;-61